Arcola, Pennsylvania
Current Conditions -  °F | °C
As of 9:54 AM on Thursday 23 Oct 2014 (Local Time) from KPTW Reporting Station
Overcast Overcast  
Wind Chill: 11°   Ceiling: 5000
Heat Index: 11°   Visibility: 10mi
Dew Point:   Wind: 13mph
Humidity: 77%   Direction: 330°NNW
Pressure: 29.82"   Gusts: NA
Location:  40.15°N, 75.46°W
Report Text: KPTW 231354Z AUTO 33011KT 10SM OVC050 11/07 A2982 RMK AO2 SLP094 T01060067
Loading
Personal Weather Stations






























Interactive Weather Map
Tropical Storm Tracking
New forecast layout! Learn more

10-Day Weather Forecast

Advertisements
Track Severe Weather on mobile